sensor_id;sensor_type;location;lat;lon;timestamp;P1;durP1;ratioP1;P2;durP2;ratioP2
19758;SDS011;10038;42.662;23.278;2023-04-25T00:01:25;5.00;;;4.00;;
19758;SDS011;10038;42.662;23.278;2023-04-25T00:03:52;5.50;;;3.63;;
19758;SDS011;10038;42.662;23.278;2023-04-25T00:06:19;4.20;;;3.37;;
19758;SDS011;10038;42.662;23.278;2023-04-25T00:08:47;4.63;;;3.50;;
19758;SDS011;10038;42.662;23.278;2023-04-25T00:11:14;6.17;;;4.10;;
19758;SDS011;10038;42.662;23.278;2023-04-25T00:13:41;9.40;;;4.47;;
19758;SDS011;10038;42.662;23.278;2023-04-25T00:16:08;5.80;;;4.13;;
19758;SDS011;10038;42.662;23.278;2023-04-25T00:18:35;4.40;;;4.00;;
19758;SDS011;10038;42.662;23.278;2023-04-25T00:21:02;4.07;;;3.67;;
19758;SDS011;10038;42.662;23.278;2023-04-25T00:23:31;5.27;;;3.80;;
19758;SDS011;10038;42.662;23.278;2023-04-25T00:25:59;9.23;;;5.07;;
19758;SDS011;10038;42.662;23.278;2023-04-25T00:28:26;3.53;;;3.17;;
19758;SDS011;10038;42.662;23.278;2023-04-25T00:30:53;3.73;;;3.43;;
19758;SDS011;10038;42.662;23.278;2023-04-25T00:33:19;5.10;;;3.83;;
19758;SDS011;10038;42.662;23.278;2023-04-25T00:35:46;5.40;;;3.67;;
19758;SDS011;10038;42.662;23.278;2023-04-25T00:38:13;4.77;;;4.30;;
19758;SDS011;10038;42.662;23.278;2023-04-25T00:40:40;4.10;;;3.27;;
19758;SDS011;10038;42.662;23.278;2023-04-25T00:43:10;7.07;;;4.13;;
19758;SDS011;10038;42.662;23.278;2023-04-25T00:45:37;8.00;;;3.47;;
19758;SDS011;10038;42.662;23.278;2023-04-25T00:48:05;5.50;;;3.90;;
19758;SDS011;10038;42.662;23.278;2023-04-25T00:50:32;8.20;;;4.20;;
19758;SDS011;10038;42.662;23.278;2023-04-25T00:53:00;5.07;;;4.30;;
19758;SDS011;10038;42.662;23.278;2023-04-25T00:55:28;6.07;;;3.67;;
19758;SDS011;10038;42.662;23.278;2023-04-25T00:57:56;6.67;;;4.27;;
19758;SDS011;10038;42.662;23.278;2023-04-25T01:00:24;5.90;;;3.93;;
19758;SDS011;10038;42.662;23.278;2023-04-25T01:02:51;7.00;;;4.70;;
19758;SDS011;10038;42.662;23.278;2023-04-25T01:05:19;6.30;;;4.27;;
19758;SDS011;10038;42.662;23.278;2023-04-25T01:07:46;5.80;;;4.10;;
19758;SDS011;10038;42.662;23.278;2023-04-25T01:10:13;5.90;;;5.00;;
19758;SDS011;10038;42.662;23.278;2023-04-25T01:12:40;7.20;;;4.27;;
19758;SDS011;10038;42.662;23.278;2023-04-25T01:15:07;6.90;;;5.17;;
19758;SDS011;10038;42.662;23.278;2023-04-25T01:17:36;6.50;;;5.20;;
19758;SDS011;10038;42.662;23.278;2023-04-25T01:20:04;7.57;;;5.73;;
19758;SDS011;10038;42.662;23.278;2023-04-25T01:22:35;8.03;;;6.07;;
19758;SDS011;10038;42.662;23.278;2023-04-25T01:25:03;7.60;;;5.80;;
19758;SDS011;10038;42.662;23.278;2023-04-25T01:27:31;9.50;;;6.70;;
19758;SDS011;10038;42.662;23.278;2023-04-25T01:29:58;10.30;;;7.17;;
19758;SDS011;10038;42.662;23.278;2023-04-25T01:32:25;10.40;;;6.77;;
19758;SDS011;10038;42.662;23.278;2023-04-25T01:34:53;10.33;;;6.90;;
19758;SDS011;10038;42.662;23.278;2023-04-25T01:37:20;13.00;;;8.10;;
19758;SDS011;10038;42.662;23.278;2023-04-25T01:39:48;11.53;;;6.40;;
19758;SDS011;10038;42.662;23.278;2023-04-25T01:42:15;10.70;;;7.40;;
19758;SDS011;10038;42.662;23.278;2023-04-25T01:44:42;11.60;;;8.33;;
19758;SDS011;10038;42.662;23.278;2023-04-25T01:47:09;14.27;;;8.77;;
19758;SDS011;10038;42.662;23.278;2023-04-25T01:49:36;12.67;;;7.47;;
19758;SDS011;10038;42.662;23.278;2023-04-25T01:52:03;15.00;;;9.03;;
19758;SDS011;10038;42.662;23.278;2023-04-25T01:54:30;10.80;;;7.50;;
19758;SDS011;10038;42.662;23.278;2023-04-25T01:56:58;11.80;;;9.00;;
19758;SDS011;10038;42.662;23.278;2023-04-25T01:59:26;12.10;;;8.20;;
19758;SDS011;10038;42.662;23.278;2023-04-25T02:01:53;12.77;;;7.33;;
19758;SDS011;10038;42.662;23.278;2023-04-25T02:04:20;11.87;;;8.23;;
19758;SDS011;10038;42.662;23.278;2023-04-25T02:06:47;12.67;;;9.30;;
19758;SDS011;10038;42.662;23.278;2023-04-25T02:09:14;13.47;;;8.73;;
19758;SDS011;10038;42.662;23.278;2023-04-25T02:11:40;15.30;;;9.77;;
19758;SDS011;10038;42.662;23.278;2023-04-25T02:14:09;9.83;;;7.03;;
19758;SDS011;10038;42.662;23.278;2023-04-25T02:16:35;19.20;;;10.40;;
19758;SDS011;10038;42.662;23.278;2023-04-25T02:19:06;14.43;;;9.43;;
19758;SDS011;10038;42.662;23.278;2023-04-25T02:21:33;15.40;;;9.57;;
19758;SDS011;10038;42.662;23.278;2023-04-25T02:24:00;15.00;;;9.30;;
19758;SDS011;10038;42.662;23.278;2023-04-25T02:26:27;12.20;;;8.53;;
19758;SDS011;10038;42.662;23.278;2023-04-25T02:28:55;12.30;;;8.73;;
19758;SDS011;10038;42.662;23.278;2023-04-25T02:31:24;14.10;;;9.27;;
19758;SDS011;10038;42.662;23.278;2023-04-25T02:33:51;14.03;;;9.27;;
19758;SDS011;10038;42.662;23.278;2023-04-25T02:36:17;15.30;;;10.37;;
19758;SDS011;10038;42.662;23.278;2023-04-25T02:38:44;18.30;;;10.13;;
19758;SDS011;10038;42.662;23.278;2023-04-25T02:41:11;17.43;;;10.40;;
19758;SDS011;10038;42.662;23.278;2023-04-25T02:43:38;13.03;;;8.50;;
19758;SDS011;10038;42.662;23.278;2023-04-25T02:46:05;16.63;;;9.70;;
19758;SDS011;10038;42.662;23.278;2023-04-25T02:48:33;14.80;;;9.67;;
19758;SDS011;10038;42.662;23.278;2023-04-25T02:51:00;14.63;;;9.90;;
19758;SDS011;10038;42.662;23.278;2023-04-25T02:53:27;17.77;;;11.37;;
19758;SDS011;10038;42.662;23.278;2023-04-25T02:55:53;13.33;;;9.20;;
19758;SDS011;10038;42.662;23.278;2023-04-25T02:58:23;17.90;;;9.30;;
19758;SDS011;10038;42.662;23.278;2023-04-25T03:00:50;14.10;;;8.83;;
19758;SDS011;10038;42.662;23.278;2023-04-25T03:03:17;16.63;;;9.63;;
19758;SDS011;10038;42.662;23.278;2023-04-25T03:05:48;15.90;;;10.03;;
19758;SDS011;10038;42.662;23.278;2023-04-25T03:08:15;12.90;;;8.83;;
19758;SDS011;10038;42.662;23.278;2023-04-25T03:10:42;14.00;;;9.13;;
19758;SDS011;10038;42.662;23.278;2023-04-25T03:13:09;15.70;;;9.57;;
19758;SDS011;10038;42.662;23.278;2023-04-25T03:15:36;15.57;;;8.93;;
19758;SDS011;10038;42.662;23.278;2023-04-25T03:18:04;13.60;;;9.27;;
19758;SDS011;10038;42.662;23.278;2023-04-25T03:20:31;16.03;;;9.30;;
19758;SDS011;10038;42.662;23.278;2023-04-25T03:22:59;13.37;;;8.80;;
19758;SDS011;10038;42.662;23.278;2023-04-25T03:25:26;14.23;;;9.40;;
19758;SDS011;10038;42.662;23.278;2023-04-25T03:27:52;16.67;;;10.47;;
19758;SDS011;10038;42.662;23.278;2023-04-25T03:30:20;13.83;;;9.17;;
19758;SDS011;10038;42.662;23.278;2023-04-25T03:32:47;14.57;;;10.20;;
19758;SDS011;10038;42.662;23.278;2023-04-25T03:35:14;13.20;;;9.30;;
19758;SDS011;10038;42.662;23.278;2023-04-25T03:37:41;17.43;;;11.50;;
19758;SDS011;10038;42.662;23.278;2023-04-25T03:40:12;15.00;;;10.97;;
19758;SDS011;10038;42.662;23.278;2023-04-25T03:42:38;17.73;;;11.73;;
19758;SDS011;10038;42.662;23.278;2023-04-25T03:45:06;17.93;;;11.10;;
19758;SDS011;10038;42.662;23.278;2023-04-25T03:47:33;16.90;;;10.93;;
19758;SDS011;10038;42.662;23.278;2023-04-25T03:50:00;17.47;;;10.67;;
19758;SDS011;10038;42.662;23.278;2023-04-25T03:52:28;19.20;;;10.30;;
19758;SDS011;10038;42.662;23.278;2023-04-25T03:54:54;18.50;;;10.60;;
19758;SDS011;10038;42.662;23.278;2023-04-25T03:57:23;17.00;;;10.87;;
19758;SDS011;10038;42.662;23.278;2023-04-25T03:59:50;15.03;;;9.60;;
19758;SDS011;10038;42.662;23.278;2023-04-25T04:02:17;16.30;;;10.57;;
19758;SDS011;10038;42.662;23.278;2023-04-25T04:04:44;12.23;;;9.17;;
19758;SDS011;10038;42.662;23.278;2023-04-25T04:07:11;12.80;;;8.60;;
19758;SDS011;10038;42.662;23.278;2023-04-25T04:09:37;15.57;;;10.67;;
19758;SDS011;10038;42.662;23.278;2023-04-25T04:12:04;13.97;;;9.27;;
19758;SDS011;10038;42.662;23.278;2023-04-25T04:14:33;14.93;;;9.57;;
19758;SDS011;10038;42.662;23.278;2023-04-25T04:17:00;14.90;;;9.37;;
19758;SDS011;10038;42.662;23.278;2023-04-25T04:19:27;16.77;;;9.77;;
19758;SDS011;10038;42.662;23.278;2023-04-25T04:21:54;13.30;;;9.80;;
19758;SDS011;10038;42.662;23.278;2023-04-25T04:24:20;12.87;;;8.93;;
19758;SDS011;10038;42.662;23.278;2023-04-25T04:26:47;10.77;;;7.73;;
19758;SDS011;10038;42.662;23.278;2023-04-25T04:29:15;15.13;;;9.33;;
19758;SDS011;10038;42.662;23.278;2023-04-25T04:31:49;12.67;;;9.20;;
19758;SDS011;10038;42.662;23.278;2023-04-25T04:34:17;12.07;;;8.70;;
19758;SDS011;10038;42.662;23.278;2023-04-25T04:36:45;10.90;;;7.97;;
19758;SDS011;10038;42.662;23.278;2023-04-25T04:39:12;15.37;;;8.50;;
19758;SDS011;10038;42.662;23.278;2023-04-25T04:41:39;12.33;;;9.10;;
19758;SDS011;10038;42.662;23.278;2023-04-25T04:44:06;13.03;;;9.37;;
19758;SDS011;10038;42.662;23.278;2023-04-25T04:46:34;14.83;;;10.40;;
19758;SDS011;10038;42.662;23.278;2023-04-25T04:49:04;12.07;;;9.60;;
19758;SDS011;10038;42.662;23.278;2023-04-25T04:51:31;15.03;;;9.50;;
19758;SDS011;10038;42.662;23.278;2023-04-25T04:53:58;12.00;;;9.20;;
19758;SDS011;10038;42.662;23.278;2023-04-25T04:56:27;13.50;;;9.97;;
19758;SDS011;10038;42.662;23.278;2023-04-25T04:58:54;13.80;;;9.30;;
19758;SDS011;10038;42.662;23.278;2023-04-25T05:01:21;16.37;;;10.50;;
19758;SDS011;10038;42.662;23.278;2023-04-25T05:03:48;12.70;;;9.67;;
19758;SDS011;10038;42.662;23.278;2023-04-25T05:06:17;12.93;;;9.60;;
19758;SDS011;10038;42.662;23.278;2023-04-25T05:08:45;13.03;;;9.00;;
19758;SDS011;10038;42.662;23.278;2023-04-25T05:11:12;12.63;;;8.57;;
19758;SDS011;10038;42.662;23.278;2023-04-25T05:13:39;7.87;;;6.60;;
19758;SDS011;10038;42.662;23.278;2023-04-25T05:16:06;10.90;;;7.87;;
19758;SDS011;10038;42.662;23.278;2023-04-25T05:18:32;11.80;;;8.17;;
19758;SDS011;10038;42.662;23.278;2023-04-25T05:20:59;12.37;;;8.80;;
19758;SDS011;10038;42.662;23.278;2023-04-25T05:23:27;13.33;;;9.67;;
19758;SDS011;10038;42.662;23.278;2023-04-25T05:25:55;11.20;;;8.57;;
19758;SDS011;10038;42.662;23.278;2023-04-25T05:28:22;13.03;;;10.00;;
19758;SDS011;10038;42.662;23.278;2023-04-25T05:30:49;13.60;;;8.90;;
19758;SDS011;10038;42.662;23.278;2023-04-25T05:33:16;12.30;;;8.20;;
19758;SDS011;10038;42.662;23.278;2023-04-25T05:35:43;12.03;;;9.53;;
19758;SDS011;10038;42.662;23.278;2023-04-25T05:38:10;13.57;;;9.27;;
19758;SDS011;10038;42.662;23.278;2023-04-25T05:40:39;15.10;;;10.53;;
19758;SDS011;10038;42.662;23.278;2023-04-25T05:43:05;11.70;;;8.57;;
19758;SDS011;10038;42.662;23.278;2023-04-25T05:45:32;12.80;;;8.60;;
19758;SDS011;10038;42.662;23.278;2023-04-25T05:47:59;11.10;;;8.40;;
19758;SDS011;10038;42.662;23.278;2023-04-25T05:50:26;16.50;;;11.10;;
19758;SDS011;10038;42.662;23.278;2023-04-25T05:52:53;14.53;;;10.70;;
19758;SDS011;10038;42.662;23.278;2023-04-25T05:55:20;14.63;;;10.00;;
19758;SDS011;10038;42.662;23.278;2023-04-25T05:57:48;13.83;;;9.67;;
19758;SDS011;10038;42.662;23.278;2023-04-25T06:00:15;13.00;;;9.87;;
19758;SDS011;10038;42.662;23.278;2023-04-25T06:02:42;14.17;;;10.83;;
19758;SDS011;10038;42.662;23.278;2023-04-25T06:05:09;15.57;;;11.60;;
19758;SDS011;10038;42.662;23.278;2023-04-25T06:07:35;16.37;;;11.80;;
19758;SDS011;10038;42.662;23.278;2023-04-25T06:10:03;16.87;;;11.03;;
19758;SDS011;10038;42.662;23.278;2023-04-25T06:12:31;13.80;;;10.33;;
19758;SDS011;10038;42.662;23.278;2023-04-25T06:15:00;14.70;;;9.90;;
19758;SDS011;10038;42.662;23.278;2023-04-25T06:17:27;13.53;;;10.17;;
19758;SDS011;10038;42.662;23.278;2023-04-25T06:19:53;14.10;;;10.90;;
19758;SDS011;10038;42.662;23.278;2023-04-25T06:22:21;17.10;;;10.83;;
19758;SDS011;10038;42.662;23.278;2023-04-25T06:24:47;18.13;;;12.17;;
19758;SDS011;10038;42.662;23.278;2023-04-25T06:27:14;14.40;;;10.20;;
19758;SDS011;10038;42.662;23.278;2023-04-25T06:29:41;13.00;;;9.60;;
19758;SDS011;10038;42.662;23.278;2023-04-25T06:32:09;11.87;;;10.10;;
19758;SDS011;10038;42.662;23.278;2023-04-25T06:34:36;14.93;;;9.53;;
19758;SDS011;10038;42.662;23.278;2023-04-25T06:37:03;14.80;;;9.60;;
19758;SDS011;10038;42.662;23.278;2023-04-25T06:39:30;15.77;;;10.43;;
19758;SDS011;10038;42.662;23.278;2023-04-25T06:41:57;15.00;;;9.77;;
19758;SDS011;10038;42.662;23.278;2023-04-25T06:44:24;11.83;;;9.77;;
19758;SDS011;10038;42.662;23.278;2023-04-25T06:46:51;18.40;;;11.20;;
19758;SDS011;10038;42.662;23.278;2023-04-25T06:49:19;12.97;;;9.70;;
19758;SDS011;10038;42.662;23.278;2023-04-25T06:51:47;16.50;;;8.70;;
19758;SDS011;10038;42.662;23.278;2023-04-25T06:54:13;13.17;;;7.87;;
19758;SDS011;10038;42.662;23.278;2023-04-25T06:56:40;10.07;;;7.13;;
19758;SDS011;10038;42.662;23.278;2023-04-25T06:59:07;11.70;;;7.73;;
19758;SDS011;10038;42.662;23.278;2023-04-25T07:01:34;12.70;;;7.57;;
19758;SDS011;10038;42.662;23.278;2023-04-25T07:04:01;10.20;;;7.60;;
19758;SDS011;10038;42.662;23.278;2023-04-25T07:06:29;13.43;;;9.20;;
19758;SDS011;10038;42.662;23.278;2023-04-25T07:08:56;12.70;;;8.67;;
19758;SDS011;10038;42.662;23.278;2023-04-25T07:11:23;15.40;;;9.50;;
19758;SDS011;10038;42.662;23.278;2023-04-25T07:13:50;12.07;;;8.90;;
19758;SDS011;10038;42.662;23.278;2023-04-25T07:16:17;18.33;;;9.93;;
19758;SDS011;10038;42.662;23.278;2023-04-25T07:18:44;12.60;;;9.47;;
19758;SDS011;10038;42.662;23.278;2023-04-25T07:21:10;17.90;;;11.03;;
19758;SDS011;10038;42.662;23.278;2023-04-25T07:23:39;12.83;;;8.30;;
19758;SDS011;10038;42.662;23.278;2023-04-25T07:26:06;12.50;;;9.10;;
19758;SDS011;10038;42.662;23.278;2023-04-25T07:28:33;11.53;;;7.63;;
19758;SDS011;10038;42.662;23.278;2023-04-25T07:31:00;15.60;;;9.97;;
19758;SDS011;10038;42.662;23.278;2023-04-25T07:33:28;16.23;;;9.67;;
19758;SDS011;10038;42.662;23.278;2023-04-25T07:35:55;11.30;;;8.80;;
19758;SDS011;10038;42.662;23.278;2023-04-25T07:38:23;15.07;;;9.73;;
19758;SDS011;10038;42.662;23.278;2023-04-25T07:40:54;14.60;;;8.57;;
19758;SDS011;10038;42.662;23.278;2023-04-25T07:43:21;9.80;;;6.93;;
19758;SDS011;10038;42.662;23.278;2023-04-25T07:45:48;11.27;;;8.17;;
19758;SDS011;10038;42.662;23.278;2023-04-25T07:48:16;17.77;;;10.20;;
19758;SDS011;10038;42.662;23.278;2023-04-25T07:50:44;22.13;;;9.37;;
19758;SDS011;10038;42.662;23.278;2023-04-25T07:53:11;9.53;;;8.00;;
19758;SDS011;10038;42.662;23.278;2023-04-25T07:55:38;10.60;;;8.03;;
19758;SDS011;10038;42.662;23.278;2023-04-25T07:58:07;10.57;;;7.30;;
19758;SDS011;10038;42.662;23.278;2023-04-25T08:00:34;10.80;;;7.33;;
19758;SDS011;10038;42.662;23.278;2023-04-25T08:03:01;10.17;;;7.90;;
19758;SDS011;10038;42.662;23.278;2023-04-25T08:05:28;11.90;;;7.27;;
19758;SDS011;10038;42.662;23.278;2023-04-25T08:07:56;8.90;;;7.03;;
19758;SDS011;10038;42.662;23.278;2023-04-25T08:10:24;9.33;;;5.90;;
19758;SDS011;10038;42.662;23.278;2023-04-25T08:12:54;9.13;;;7.07;;
19758;SDS011;10038;42.662;23.278;2023-04-25T08:15:22;12.83;;;6.90;;
19758;SDS011;10038;42.662;23.278;2023-04-25T08:17:50;9.00;;;6.80;;
19758;SDS011;10038;42.662;23.278;2023-04-25T08:20:18;9.27;;;5.87;;
19758;SDS011;10038;42.662;23.278;2023-04-25T08:22:44;10.23;;;6.23;;
19758;SDS011;10038;42.662;23.278;2023-04-25T08:25:13;10.30;;;6.00;;
19758;SDS011;10038;42.662;23.278;2023-04-25T08:27:41;9.17;;;6.30;;
19758;SDS011;10038;42.662;23.278;2023-04-25T08:30:09;8.77;;;5.50;;
19758;SDS011;10038;42.662;23.278;2023-04-25T08:32:38;7.23;;;4.30;;
19758;SDS011;10038;42.662;23.278;2023-04-25T08:35:05;7.70;;;3.00;;
19758;SDS011;10038;42.662;23.278;2023-04-25T08:37:33;6.63;;;4.50;;
19758;SDS011;10038;42.662;23.278;2023-04-25T08:40:01;6.57;;;4.00;;
19758;SDS011;10038;42.662;23.278;2023-04-25T08:42:32;8.00;;;3.60;;
19758;SDS011;10038;42.662;23.278;2023-04-25T08:45:01;3.10;;;2.90;;
19758;SDS011;10038;42.662;23.278;2023-04-25T08:47:29;4.97;;;2.43;;
19758;SDS011;10038;42.662;23.278;2023-04-25T08:50:01;3.00;;;2.63;;
19758;SDS011;10038;42.662;23.278;2023-04-25T08:52:32;2.73;;;2.53;;
19758;SDS011;10038;42.662;23.278;2023-04-25T08:55:03;2.40;;;1.97;;
19758;SDS011;10038;42.662;23.278;2023-04-25T08:57:33;3.20;;;2.27;;
19758;SDS011;10038;42.662;23.278;2023-04-25T09:00:01;2.33;;;2.10;;
19758;SDS011;10038;42.662;23.278;2023-04-25T09:02:30;3.80;;;3.20;;
19758;SDS011;10038;42.662;23.278;2023-04-25T09:04:57;3.47;;;3.10;;
19758;SDS011;10038;42.662;23.278;2023-04-25T09:07:27;2.90;;;2.13;;
19758;SDS011;10038;42.662;23.278;2023-04-25T09:09:53;2.40;;;2.10;;
19758;SDS011;10038;42.662;23.278;2023-04-25T09:12:20;1.70;;;1.60;;
19758;SDS011;10038;42.662;23.278;2023-04-25T09:17:41;3.13;;;2.43;;
19758;SDS011;10038;42.662;23.278;2023-04-25T09:20:10;2.17;;;1.53;;
19758;SDS011;10038;42.662;23.278;2023-04-25T09:22:40;1.53;;;1.30;;
19758;SDS011;10038;42.662;23.278;2023-04-25T09:25:08;1.50;;;1.40;;
19758;SDS011;10038;42.662;23.278;2023-04-25T09:27:37;3.23;;;1.80;;
19758;SDS011;10038;42.662;23.278;2023-04-25T09:30:16;10.40;;;4.90;;
19758;SDS011;10038;42.662;23.278;2023-04-25T09:32:43;2.77;;;1.80;;
19758;SDS011;10038;42.662;23.278;2023-04-25T09:35:10;2.27;;;1.30;;
19758;SDS011;10038;42.662;23.278;2023-04-25T09:37:55;3.37;;;1.30;;
19758;SDS011;10038;42.662;23.278;2023-04-25T09:40:22;3.33;;;1.30;;
19758;SDS011;10038;42.662;23.278;2023-04-25T09:42:49;1.87;;;1.60;;
19758;SDS011;10038;42.662;23.278;2023-04-25T09:45:16;1.70;;;1.43;;
19758;SDS011;10038;42.662;23.278;2023-04-25T09:47:43;2.27;;;1.20;;
19758;SDS011;10038;42.662;23.278;2023-04-25T09:50:13;2.00;;;1.47;;
19758;SDS011;10038;42.662;23.278;2023-04-25T09:52:41;2.63;;;1.20;;
19758;SDS011;10038;42.662;23.278;2023-04-25T09:55:09;3.20;;;2.10;;
19758;SDS011;10038;42.662;23.278;2023-04-25T09:57:37;2.70;;;1.97;;
19758;SDS011;10038;42.662;23.278;2023-04-25T10:00:05;3.00;;;1.30;;
19758;SDS011;10038;42.662;23.278;2023-04-25T10:02:37;7.10;;;1.43;;
19758;SDS011;10038;42.662;23.278;2023-04-25T10:05:08;3.80;;;1.60;;
19758;SDS011;10038;42.662;23.278;2023-04-25T10:07:36;1.57;;;1.47;;
19758;SDS011;10038;42.662;23.278;2023-04-25T10:10:04;3.20;;;1.50;;
19758;SDS011;10038;42.662;23.278;2023-04-25T10:12:33;1.20;;;1.00;;
19758;SDS011;10038;42.662;23.278;2023-04-25T10:15:01;1.60;;;1.50;;
19758;SDS011;10038;42.662;23.278;2023-04-25T10:17:30;2.43;;;1.60;;
19758;SDS011;10038;42.662;23.278;2023-04-25T10:19:59;6.90;;;1.40;;
19758;SDS011;10038;42.662;23.278;2023-04-25T10:22:29;2.13;;;1.60;;
19758;SDS011;10038;42.662;23.278;2023-04-25T10:25:00;1.60;;;1.20;;
19758;SDS011;10038;42.662;23.278;2023-04-25T10:27:29;2.43;;;2.13;;
19758;SDS011;10038;42.662;23.278;2023-04-25T10:30:04;1.53;;;1.20;;
19758;SDS011;10038;42.662;23.278;2023-04-25T10:32:35;1.77;;;1.67;;
19758;SDS011;10038;42.662;23.278;2023-04-25T10:35:12;1.70;;;1.20;;
19758;SDS011;10038;42.662;23.278;2023-04-25T10:37:57;1.70;;;1.20;;
19758;SDS011;10038;42.662;23.278;2023-04-25T10:40:25;1.37;;;1.00;;
19758;SDS011;10038;42.662;23.278;2023-04-25T10:42:53;1.20;;;1.00;;
19758;SDS011;10038;42.662;23.278;2023-04-25T10:45:22;1.50;;;1.30;;
19758;SDS011;10038;42.662;23.278;2023-04-25T10:47:49;1.83;;;0.93;;
19758;SDS011;10038;42.662;23.278;2023-04-25T10:50:16;2.00;;;1.33;;
19758;SDS011;10038;42.662;23.278;2023-04-25T10:52:44;1.10;;;0.93;;
19758;SDS011;10038;42.662;23.278;2023-04-25T10:55:11;1.30;;;1.07;;
19758;SDS011;10038;42.662;23.278;2023-04-25T10:57:39;15.97;;;1.73;;
19758;SDS011;10038;42.662;23.278;2023-04-25T11:00:08;1.80;;;1.00;;
19758;SDS011;10038;42.662;23.278;2023-04-25T11:02:39;1.20;;;1.10;;
19758;SDS011;10038;42.662;23.278;2023-04-25T11:05:10;1.07;;;0.93;;
19758;SDS011;10038;42.662;23.278;2023-04-25T11:07:44;1.20;;;0.90;;
19758;SDS011;10038;42.662;23.278;2023-04-25T11:10:16;2.40;;;1.30;;
19758;SDS011;10038;42.662;23.278;2023-04-25T11:12:45;2.23;;;1.10;;
19758;SDS011;10038;42.662;23.278;2023-04-25T11:15:12;2.47;;;1.13;;
19758;SDS011;10038;42.662;23.278;2023-04-25T11:17:41;1.20;;;1.00;;
19758;SDS011;10038;42.662;23.278;2023-04-25T11:20:10;1.20;;;0.90;;
19758;SDS011;10038;42.662;23.278;2023-04-25T11:22:39;2.33;;;1.30;;
19758;SDS011;10038;42.662;23.278;2023-04-25T11:25:07;1.90;;;1.47;;
19758;SDS011;10038;42.662;23.278;2023-04-25T11:27:37;3.90;;;1.20;;
19758;SDS011;10038;42.662;23.278;2023-04-25T11:30:11;1.70;;;1.27;;
19758;SDS011;10038;42.662;23.278;2023-04-25T11:32:41;2.70;;;1.80;;
19758;SDS011;10038;42.662;23.278;2023-04-25T11:35:09;1.93;;;1.13;;
19758;SDS011;10038;42.662;23.278;2023-04-25T11:37:36;1.47;;;1.10;;
19758;SDS011;10038;42.662;23.278;2023-04-25T11:40:07;4.73;;;1.40;;
19758;SDS011;10038;42.662;23.278;2023-04-25T11:42:38;2.03;;;1.30;;
19758;SDS011;10038;42.662;23.278;2023-04-25T11:45:12;1.93;;;1.50;;
19758;SDS011;10038;42.662;23.278;2023-04-25T11:47:41;1.80;;;1.30;;
19758;SDS011;10038;42.662;23.278;2023-04-25T11:50:09;1.20;;;0.97;;
19758;SDS011;10038;42.662;23.278;2023-04-25T11:52:37;1.50;;;1.27;;
19758;SDS011;10038;42.662;23.278;2023-04-25T11:55:05;1.90;;;1.30;;
19758;SDS011;10038;42.662;23.278;2023-04-25T11:57:34;1.50;;;1.40;;
19758;SDS011;10038;42.662;23.278;2023-04-25T12:00:06;1.70;;;1.40;;
19758;SDS011;10038;42.662;23.278;2023-04-25T12:02:36;1.93;;;1.50;;
19758;SDS011;10038;42.662;23.278;2023-04-25T12:05:07;2.20;;;1.50;;
19758;SDS011;10038;42.662;23.278;2023-04-25T12:07:34;2.60;;;1.30;;
19758;SDS011;10038;42.662;23.278;2023-04-25T12:10:06;4.87;;;1.40;;
19758;SDS011;10038;42.662;23.278;2023-04-25T12:12:34;5.40;;;1.33;;
19758;SDS011;10038;42.662;23.278;2023-04-25T12:15:08;4.40;;;1.23;;
19758;SDS011;10038;42.662;23.278;2023-04-25T12:17:36;1.80;;;1.23;;
19758;SDS011;10038;42.662;23.278;2023-04-25T12:20:09;3.50;;;1.20;;
19758;SDS011;10038;42.662;23.278;2023-04-25T12:22:40;2.10;;;1.40;;
19758;SDS011;10038;42.662;23.278;2023-04-25T12:25:09;1.70;;;1.40;;
19758;SDS011;10038;42.662;23.278;2023-04-25T12:27:37;2.00;;;1.30;;
19758;SDS011;10038;42.662;23.278;2023-04-25T12:30:05;1.57;;;1.17;;
19758;SDS011;10038;42.662;23.278;2023-04-25T12:32:33;2.57;;;1.13;;
19758;SDS011;10038;42.662;23.278;2023-04-25T12:35:00;1.80;;;1.00;;
19758;SDS011;10038;42.662;23.278;2023-04-25T12:37:29;3.20;;;0.90;;
19758;SDS011;10038;42.662;23.278;2023-04-25T12:39:56;7.57;;;1.10;;
19758;SDS011;10038;42.662;23.278;2023-04-25T12:42:23;7.13;;;1.00;;
19758;SDS011;10038;42.662;23.278;2023-04-25T12:44:50;4.33;;;1.07;;
19758;SDS011;10038;42.662;23.278;2023-04-25T12:47:18;1.30;;;0.90;;
19758;SDS011;10038;42.662;23.278;2023-04-25T12:49:46;1.60;;;1.10;;
19758;SDS011;10038;42.662;23.278;2023-04-25T12:52:13;1.77;;;1.13;;
19758;SDS011;10038;42.662;23.278;2023-04-25T12:54:41;3.07;;;1.60;;
19758;SDS011;10038;42.662;23.278;2023-04-25T13:02:31;1.97;;;1.50;;
19758;SDS011;10038;42.662;23.278;2023-04-25T13:04:58;8.90;;;6.40;;
19758;SDS011;10038;42.662;23.278;2023-04-25T13:07:25;4.90;;;3.20;;
19758;SDS011;10038;42.662;23.278;2023-04-25T13:09:53;5.67;;;3.00;;
19758;SDS011;10038;42.662;23.278;2023-04-25T13:12:20;7.37;;;3.20;;
19758;SDS011;10038;42.662;23.278;2023-04-25T13:14:47;6.10;;;3.73;;
19758;SDS011;10038;42.662;23.278;2023-04-25T13:17:14;4.77;;;2.53;;
19758;SDS011;10038;42.662;23.278;2023-04-25T13:19:41;6.80;;;3.67;;
19758;SDS011;10038;42.662;23.278;2023-04-25T13:22:08;7.10;;;3.07;;
19758;SDS011;10038;42.662;23.278;2023-04-25T13:24:35;3.30;;;3.00;;
19758;SDS011;10038;42.662;23.278;2023-04-25T13:27:03;4.43;;;2.67;;
19758;SDS011;10038;42.662;23.278;2023-04-25T13:29:30;3.40;;;2.30;;
19758;SDS011;10038;42.662;23.278;2023-04-25T13:31:59;3.80;;;2.63;;
19758;SDS011;10038;42.662;23.278;2023-04-25T13:34:26;4.73;;;2.63;;
19758;SDS011;10038;42.662;23.278;2023-04-25T13:36:54;4.30;;;3.00;;
19758;SDS011;10038;42.662;23.278;2023-04-25T13:39:21;9.03;;;2.50;;
19758;SDS011;10038;42.662;23.278;2023-04-25T13:41:48;3.27;;;1.70;;
19758;SDS011;10038;42.662;23.278;2023-04-25T13:44:16;2.03;;;1.60;;
19758;SDS011;10038;42.662;23.278;2023-04-25T13:46:43;2.20;;;1.90;;
19758;SDS011;10038;42.662;23.278;2023-04-25T13:49:11;1.73;;;1.40;;
19758;SDS011;10038;42.662;23.278;2023-04-25T13:51:38;2.00;;;1.60;;
19758;SDS011;10038;42.662;23.278;2023-04-25T13:54:05;3.47;;;1.80;;
19758;SDS011;10038;42.662;23.278;2023-04-25T13:56:32;5.37;;;1.87;;
19758;SDS011;10038;42.662;23.278;2023-04-25T13:58:59;2.30;;;1.90;;
19758;SDS011;10038;42.662;23.278;2023-04-25T14:01:28;3.93;;;1.60;;
19758;SDS011;10038;42.662;23.278;2023-04-25T14:03:56;3.60;;;1.70;;
19758;SDS011;10038;42.662;23.278;2023-04-25T14:06:23;2.53;;;1.80;;
19758;SDS011;10038;42.662;23.278;2023-04-25T14:08:50;2.37;;;1.30;;
19758;SDS011;10038;42.662;23.278;2023-04-25T14:11:17;3.83;;;1.90;;
19758;SDS011;10038;42.662;23.278;2023-04-25T14:13:44;2.90;;;2.30;;
19758;SDS011;10038;42.662;23.278;2023-04-25T14:16:12;2.50;;;2.20;;
19758;SDS011;10038;42.662;23.278;2023-04-25T14:18:41;6.73;;;5.23;;
19758;SDS011;10038;42.662;23.278;2023-04-25T14:21:07;4.97;;;3.67;;
19758;SDS011;10038;42.662;23.278;2023-04-25T14:23:35;1.57;;;1.20;;
19758;SDS011;10038;42.662;23.278;2023-04-25T14:26:01;1.90;;;1.10;;
19758;SDS011;10038;42.662;23.278;2023-04-25T14:28:28;2.10;;;1.23;;
19758;SDS011;10038;42.662;23.278;2023-04-25T14:30:55;1.47;;;1.10;;
19758;SDS011;10038;42.662;23.278;2023-04-25T14:33:22;2.87;;;1.60;;
19758;SDS011;10038;42.662;23.278;2023-04-25T14:35:51;1.50;;;1.13;;
19758;SDS011;10038;42.662;23.278;2023-04-25T14:38:18;1.80;;;1.40;;